Time;durP1;ratioP1;P1;durP2;ratioP2;P2;SDS_P1;SDS_P2;PMS_P1;PMS_P2;Temp;Humidity;BMP_temperature;BMP_pressure;BME280_temperature;BME280_humidity;BME280_pressure;Samples;Min_cycle;Max_cycle;Signal;HPM_P1;HPM_P2
2023/08/13 00:02:24;;;;;;;0.80;0.80;;;16.20;99.90;;;;;;4982509;28;20054;-87
2023/08/13 00:04:49;;;;;;;0.80;0.80;;;16.20;99.90;;;;;;4990722;28;20570;-87
2023/08/13 00:07:15;;;;;;;0.80;0.80;;;16.10;99.90;;;;;;4992695;28;20062;-87
2023/08/13 00:09:41;;;;;;;0.80;0.80;;;16.10;99.90;;;;;;4994720;28;20843;-87
2023/08/13 00:12:06;;;;;;;0.90;0.90;;;16.10;99.90;;;;;;4998582;28;20042;-90
2023/08/13 00:14:32;;;;;;;0.90;0.90;;;16.20;99.90;;;;;;4977838;28;20055;-87
2023/08/13 00:16:58;;;;;;;0.90;0.90;;;16.10;99.90;;;;;;4975855;28;20526;-87
2023/08/13 00:19:25;;;;;;;0.93;0.93;;;16.20;99.90;;;;;;4977988;28;20053;-87
2023/08/13 00:21:51;;;;;;;0.90;0.90;;;16.30;99.90;;;;;;4989269;28;20049;-87
2023/08/13 00:24:16;;;;;;;0.90;0.90;;;16.30;99.90;;;;;;4997190;28;20057;-88
2023/08/13 00:26:42;;;;;;;0.90;0.90;;;16.40;99.90;;;;;;4973829;28;20086;-88
2023/08/13 00:29:08;;;;;;;0.88;0.88;;;16.40;99.90;;;;;;4994067;28;20760;-87
2023/08/13 00:31:34;;;;;;;0.85;0.85;;;16.40;99.90;;;;;;4993349;28;20073;-88
2023/08/13 00:33:59;;;;;;;0.90;0.90;;;16.50;99.90;;;;;;4990938;28;20057;-86
2023/08/13 00:36:25;;;;;;;0.90;0.90;;;16.40;99.90;;;;;;4980914;28;20053;-86
2023/08/13 00:38:51;;;;;;;0.90;0.90;;;16.50;99.90;;;;;;4993438;28;20053;-87
2023/08/13 00:41:16;;;;;;;0.88;0.88;;;16.50;99.90;;;;;;4981862;28;20038;-88
2023/08/13 00:43:42;;;;;;;0.85;0.85;;;16.50;99.90;;;;;;5007161;28;20061;-87
2023/08/13 00:46:08;;;;;;;0.80;0.80;;;16.60;99.90;;;;;;4984743;28;20137;-87
2023/08/13 00:48:38;;;;;;;0.80;0.80;;;16.60;99.90;;;;;;4981080;28;20115;-87
2023/08/13 00:51:04;;;;;;;0.80;0.80;;;16.60;99.90;;;;;;4992393;28;20043;-88
2023/08/13 00:53:31;;;;;;;0.80;0.80;;;16.70;99.90;;;;;;4978374;28;20104;-88
2023/08/13 00:55:57;;;;;;;0.80;0.80;;;16.70;99.90;;;;;;4975788;28;20042;-87
2023/08/13 00:58:23;;;;;;;0.77;0.77;;;16.80;99.90;;;;;;4992482;28;20046;-88
2023/08/13 01:00:49;;;;;;;0.82;0.82;;;16.70;99.90;;;;;;4972861;28;20495;-88
2023/08/13 01:03:14;;;;;;;0.80;0.80;;;16.80;99.90;;;;;;4994445;28;20046;-88
2023/08/13 01:05:40;;;;;;;0.80;0.80;;;16.80;99.90;;;;;;4994564;28;20132;-87
2023/08/13 01:08:34;;;;;;;0.80;0.80;;;16.80;99.90;;;;;;4987082;28;20078;-87
2023/08/13 01:11:09;;;;;;;0.80;0.80;;;16.80;99.90;;;;;;4982083;28;20088;-87
2023/08/13 01:13:41;;;;;;;0.90;0.90;;;16.90;99.90;;;;;;4983575;28;20057;-85
2023/08/13 01:16:09;;;;;;;0.80;0.80;;;16.90;99.90;;;;;;4994495;28;20125;-86
2023/08/13 01:18:36;;;;;;;0.80;0.80;;;16.90;99.90;;;;;;5001243;28;20131;-90
2023/08/13 01:21:03;;;;;;;0.80;0.80;;;17.00;99.90;;;;;;4998536;28;20072;-89
2023/08/13 01:23:29;;;;;;;0.80;0.80;;;17.00;99.90;;;;;;5000647;28;20052;-92
2023/08/13 01:26:00;;;;;;;0.70;0.70;;;17.00;99.90;;;;;;4987200;28;20483;-87
2023/08/13 01:28:32;;;;;;;0.80;0.80;;;16.90;99.90;;;;;;4987260;28;20056;-90
2023/08/13 01:31:05;;;;;;;0.80;0.80;;;16.90;99.90;;;;;;5010454;28;20061;-89
2023/08/13 01:33:35;;;;;;;0.80;0.80;;;16.80;99.90;;;;;;4996562;28;20176;-88
2023/08/13 01:36:03;;;;;;;0.80;0.80;;;16.80;99.90;;;;;;4999876;28;20048;-89
2023/08/13 01:38:30;;;;;;;0.80;0.80;;;16.70;99.90;;;;;;4986203;28;20124;-86
2023/08/13 01:41:04;;;;;;;0.80;0.80;;;16.60;99.90;;;;;;4998215;28;20056;-88
2023/08/13 01:43:29;;;;;;;0.80;0.80;;;16.50;99.90;;;;;;4983482;28;20045;-88
2023/08/13 01:45:56;;;;;;;0.80;0.80;;;16.60;99.90;;;;;;4981336;28;20045;-91
2023/08/13 01:48:21;;;;;;;0.80;0.80;;;16.50;99.90;;;;;;4980982;28;20038;-89
2023/08/13 01:50:47;;;;;;;0.80;0.80;;;16.40;99.90;;;;;;4995603;28;20090;-90
2023/08/13 01:53:13;;;;;;;0.80;0.80;;;16.40;99.90;;;;;;4998601;28;20046;-91
2023/08/13 01:55:42;;;;;;;0.90;0.90;;;16.30;99.90;;;;;;5002175;28;20050;-93
2023/08/13 01:58:09;;;;;;;0.90;0.90;;;16.20;99.90;;;;;;4983711;28;20523;-87
2023/08/13 02:00:34;;;;;;;0.90;0.90;;;16.20;99.90;;;;;;5000131;28;20393;-89
2023/08/13 02:03:00;;;;;;;0.90;0.90;;;16.30;99.90;;;;;;4999329;28;20057;-88
2023/08/13 02:05:25;;;;;;;0.90;0.90;;;16.30;99.90;;;;;;4981636;28;20605;-92
2023/08/13 02:07:52;;;;;;;0.80;0.80;;;16.20;99.90;;;;;;4985475;28;20406;-92
2023/08/13 02:10:17;;;;;;;0.90;0.90;;;16.20;99.90;;;;;;4999820;28;20046;-87
2023/08/13 02:12:43;;;;;;;0.90;0.90;;;16.10;99.90;;;;;;4983455;28;20038;-88
2023/08/13 02:15:09;;;;;;;0.90;0.90;;;16.10;99.90;;;;;;5002164;28;20046;-89
2023/08/13 02:17:34;;;;;;;0.90;0.90;;;16.20;99.90;;;;;;4985625;28;20400;-89
2023/08/13 02:20:00;;;;;;;0.80;0.80;;;16.10;99.90;;;;;;4999278;28;20046;-89
2023/08/13 02:22:26;;;;;;;0.90;0.90;;;16.10;99.90;;;;;;4998190;28;20499;-89
2023/08/13 02:24:51;;;;;;;0.80;0.80;;;16.10;99.90;;;;;;4996265;28;20578;-89
2023/08/13 02:27:17;;;;;;;0.80;0.80;;;16.20;99.90;;;;;;4983015;28;20038;-88
2023/08/13 02:29:43;;;;;;;0.80;0.80;;;16.00;99.90;;;;;;4983789;28;20124;-87
2023/08/13 02:32:09;;;;;;;0.80;0.80;;;16.10;99.90;;;;;;4999103;28;20180;-87
2023/08/13 02:34:46;;;;;;;0.80;0.80;;;16.10;99.90;;;;;;5000186;28;20050;-90
2023/08/13 02:37:11;;;;;;;0.80;0.80;;;16.10;99.90;;;;;;4988528;28;20646;-89
2023/08/13 02:39:37;;;;;;;0.90;0.90;;;16.00;99.90;;;;;;5001138;28;20053;-89
2023/08/13 02:42:03;;;;;;;0.85;0.85;;;16.10;99.90;;;;;;4989465;28;20038;-91
2023/08/13 02:44:29;;;;;;;0.80;0.80;;;16.00;99.90;;;;;;5005778;28;20043;-90
2023/08/13 02:46:58;;;;;;;0.80;0.80;;;15.90;99.90;;;;;;4986359;28;20046;-92
2023/08/13 02:49:23;;;;;;;0.90;0.90;;;16.00;99.90;;;;;;4984617;28;20042;-90
2023/08/13 02:51:58;;;;;;;0.90;0.90;;;15.90;99.90;;;;;;5003545;28;20042;-94
2023/08/13 02:54:24;;;;;;;0.80;0.80;;;15.90;99.90;;;;;;4982961;28;20052;-91
2023/08/13 02:56:57;;;;;;;0.88;0.88;;;15.90;99.90;;;;;;4986268;28;20062;-91
2023/08/13 02:59:22;;;;;;;0.90;0.90;;;15.80;99.90;;;;;;5001628;28;20054;-91
2023/08/13 03:01:48;;;;;;;0.90;0.90;;;15.90;99.90;;;;;;4982571;28;20050;-90
2023/08/13 03:04:14;;;;;;;0.80;0.80;;;15.90;99.90;;;;;;4991079;28;20777;-91
2023/08/13 03:06:39;;;;;;;0.80;0.80;;;15.80;99.90;;;;;;4985063;28;20100;-90
2023/08/13 03:09:05;;;;;;;0.90;0.90;;;15.80;99.90;;;;;;4985191;28;20136;-90
2023/08/13 03:11:31;;;;;;;0.80;0.80;;;15.70;99.90;;;;;;4986065;28;20054;-93
2023/08/13 03:13:57;;;;;;;0.88;0.88;;;15.60;99.90;;;;;;4983997;28;20416;-89
2023/08/13 03:16:22;;;;;;;0.90;0.90;;;15.60;99.90;;;;;;4982776;28;20093;-89
2023/08/13 03:18:48;;;;;;;0.80;0.80;;;15.60;99.90;;;;;;5001177;28;20521;-90
2023/08/13 03:21:13;;;;;;;0.90;0.90;;;15.50;99.90;;;;;;4988218;28;21429;-88
2023/08/13 03:23:39;;;;;;;0.80;0.80;;;15.60;99.90;;;;;;4995557;28;20057;-91
2023/08/13 03:26:05;;;;;;;0.90;0.90;;;15.40;99.90;;;;;;5019475;28;20046;-90
2023/08/13 03:28:30;;;;;;;0.80;0.80;;;15.50;99.90;;;;;;4996416;28;20499;-90
2023/08/13 03:31:00;;;;;;;0.80;0.80;;;15.40;99.90;;;;;;4988740;28;20116;-91
2023/08/13 03:33:26;;;;;;;0.80;0.80;;;15.50;99.90;;;;;;4992208;28;20072;-90
2023/08/13 03:35:52;;;;;;;0.80;0.80;;;15.50;99.90;;;;;;4996308;28;20092;-92
2023/08/13 03:38:17;;;;;;;0.85;0.85;;;15.30;99.90;;;;;;4985027;28;20513;-94
2023/08/13 03:40:43;;;;;;;0.85;0.85;;;15.30;99.90;;;;;;4982586;28;20057;-89
2023/08/13 03:43:09;;;;;;;0.82;0.82;;;15.30;99.90;;;;;;5000638;28;20038;-91
2023/08/13 03:45:35;;;;;;;0.80;0.80;;;15.40;99.90;;;;;;4995517;28;20129;-89
2023/08/13 03:48:00;;;;;;;0.80;0.80;;;15.40;99.90;;;;;;4995895;28;20053;-87
2023/08/13 03:50:26;;;;;;;0.80;0.80;;;15.40;99.90;;;;;;4987470;28;20042;-86
2023/08/13 03:52:52;;;;;;;0.90;0.90;;;15.40;99.90;;;;;;5001087;28;20046;-88
2023/08/13 03:55:17;;;;;;;0.80;0.80;;;15.20;99.90;;;;;;5003238;28;20128;-90
2023/08/13 03:57:43;;;;;;;0.85;0.85;;;15.30;99.90;;;;;;5008576;28;20123;-90
2023/08/13 04:00:09;;;;;;;0.90;0.90;;;15.20;99.90;;;;;;4996382;28;20057;-89
2023/08/13 04:02:39;;;;;;;0.90;0.90;;;15.20;99.90;;;;;;4998543;28;20572;-90
2023/08/13 04:05:06;;;;;;;0.80;0.80;;;15.10;99.90;;;;;;4986432;28;20050;-88
2023/08/13 04:07:31;;;;;;;0.80;0.80;;;15.00;99.90;;;;;;4977971;28;21883;-88
2023/08/13 04:09:57;;;;;;;0.80;0.80;;;15.00;99.90;;;;;;5000909;28;20081;-90
2023/08/13 04:12:22;;;;;;;0.70;0.70;;;15.10;99.90;;;;;;4985566;28;20079;-88
2023/08/13 04:14:48;;;;;;;0.80;0.80;;;15.20;99.90;;;;;;4984611;28;20398;-89
2023/08/13 04:17:14;;;;;;;0.80;0.80;;;15.00;99.90;;;;;;4984783;28;20046;-87
2023/08/13 04:19:39;;;;;;;0.73;0.73;;;15.00;99.90;;;;;;4999570;28;20063;-91
2023/08/13 04:22:05;;;;;;;0.75;0.75;;;15.00;99.90;;;;;;4997277;28;20061;-91
2023/08/13 04:24:31;;;;;;;0.80;0.80;;;15.20;99.90;;;;;;4989547;28;20124;-91
2023/08/13 04:26:56;;;;;;;0.70;0.70;;;14.90;99.90;;;;;;5002364;28;20057;-89
2023/08/13 04:29:22;;;;;;;0.70;0.70;;;15.00;99.90;;;;;;4980937;28;20519;-92
2023/08/13 04:31:48;;;;;;;0.68;0.68;;;15.10;99.90;;;;;;4999292;28;20049;-90
2023/08/13 04:34:13;;;;;;;0.65;0.65;;;15.10;99.90;;;;;;5002373;28;20431;-89
2023/08/13 04:36:40;;;;;;;0.68;0.68;;;15.10;99.90;;;;;;4982023;28;20120;-90
2023/08/13 04:39:07;;;;;;;0.68;0.68;;;15.20;99.90;;;;;;4983106;28;20053;-93
2023/08/13 04:41:33;;;;;;;0.70;0.70;;;15.10;99.90;;;;;;4986610;28;20061;-91
2023/08/13 04:43:59;;;;;;;0.60;0.60;;;15.10;99.90;;;;;;4983586;28;20132;-88
2023/08/13 04:46:24;;;;;;;0.70;0.70;;;15.20;99.90;;;;;;4983955;28;20053;-90
2023/08/13 04:48:50;;;;;;;0.60;0.60;;;15.30;99.90;;;;;;4985286;28;20120;-90
2023/08/13 04:51:24;;;;;;;0.60;0.60;;;15.40;99.90;;;;;;5003455;28;20458;-93
2023/08/13 04:53:49;;;;;;;0.70;0.70;;;15.40;99.90;;;;;;4977914;28;20052;-89
2023/08/13 04:56:15;;;;;;;0.70;0.70;;;15.30;99.90;;;;;;4996781;28;20043;-90
2023/08/13 04:58:43;;;;;;;0.68;0.68;;;15.40;99.90;;;;;;4975646;28;20056;-91
2023/08/13 05:01:08;;;;;;;0.68;0.68;;;15.40;99.90;;;;;;4999990;28;20057;-90
2023/08/13 05:03:34;;;;;;;0.60;0.60;;;15.50;99.90;;;;;;4979539;28;20050;-90
2023/08/13 05:06:00;;;;;;;0.60;0.60;;;15.50;99.90;;;;;;4983866;28;20081;-91
2023/08/13 05:08:25;;;;;;;0.65;0.65;;;15.60;99.90;;;;;;4994406;28;20050;-88
2023/08/13 05:10:51;;;;;;;0.65;0.65;;;16.20;99.90;;;;;;4995131;28;20050;-88
2023/08/13 05:13:20;;;;;;;0.93;0.93;;;16.90;99.90;;;;;;4996413;28;20866;-93
2023/08/13 05:15:46;;;;;;;1.30;1.30;;;18.00;99.90;;;;;;4986979;28;20053;-91
2023/08/13 05:18:14;;;;;;;0.90;0.90;;;18.70;99.90;;;;;;4983019;28;20054;-95
2023/08/13 05:20:40;;;;;;;0.70;0.70;;;20.30;99.90;;;;;;4997169;28;20053;-90
2023/08/13 05:23:09;;;;;;;0.80;0.80;;;21.10;99.90;;;;;;4984186;28;20046;-94
2023/08/13 05:25:38;;;;;;;0.80;0.80;;;20.00;99.90;;;;;;4988288;28;20109;-93
2023/08/13 05:28:08;;;;;;;0.60;0.60;;;21.50;99.90;;;;;;4988310;28;20046;-94
2023/08/13 05:30:37;;;;;;;0.50;0.50;;;22.20;99.90;;;;;;4989765;28;20052;-93
2023/08/13 05:33:03;;;;;;;0.45;0.45;;;22.90;99.90;;;;;;4993311;28;20038;-89
2023/08/13 05:35:29;;;;;;;0.50;0.50;;;22.90;99.90;;;;;;4986219;28;20045;-94
2023/08/13 05:37:55;;;;;;;0.50;0.50;;;23.10;99.90;;;;;;4987977;28;20104;-92
2023/08/13 05:40:21;;;;;;;0.57;0.57;;;23.90;99.90;;;;;;5006670;28;20041;-92
2023/08/13 05:42:47;;;;;;;0.60;0.60;;;23.70;99.90;;;;;;5001675;28;20038;-94
2023/08/13 05:45:17;;;;;;;0.60;0.60;;;23.70;99.90;;;;;;5007728;28;20530;-94
2023/08/13 05:47:43;;;;;;;0.70;0.70;;;23.70;99.90;;;;;;4994419;28;20074;-94
2023/08/13 05:50:09;;;;;;;0.70;0.70;;;24.00;99.90;;;;;;4988381;28;20073;-93
2023/08/13 05:52:35;;;;;;;0.60;0.60;;;24.40;99.90;;;;;;4986300;28;20053;-93
2023/08/13 05:55:08;;;;;;;0.70;0.70;;;23.00;99.90;;;;;;5002287;28;20050;-94
2023/08/13 05:57:35;;;;;;;0.60;0.60;;;21.20;99.90;;;;;;4988607;28;20395;-93
2023/08/13 06:00:01;;;;;;;0.60;0.60;;;20.60;99.90;;;;;;4984851;28;20077;-93
2023/08/13 06:02:29;;;;;;;0.60;0.60;;;20.30;99.90;;;;;;4992910;28;20077;-92
2023/08/13 06:05:11;;;;;;;0.63;0.63;;;20.00;99.90;;;;;;5002916;28;20048;-94
2023/08/13 06:07:37;;;;;;;0.70;0.70;;;20.00;99.90;;;;;;4981875;28;20046;-93
2023/08/13 06:10:04;;;;;;;0.60;0.60;;;19.80;99.90;;;;;;4989087;28;20042;-94
2023/08/13 06:12:31;;;;;;;0.60;0.60;;;19.60;99.90;;;;;;4990635;28;20046;-95
2023/08/13 06:15:17;;;;;;;0.60;0.60;;;19.70;99.90;;;;;;4983907;28;20740;-94
2023/08/13 06:17:46;;;;;;;0.60;0.60;;;19.50;99.90;;;;;;4993256;28;20049;-94
2023/08/13 06:20:18;;;;;;;0.70;0.70;;;19.60;99.90;;;;;;4984816;28;20050;-96
2023/08/13 06:22:45;;;;;;;0.70;0.70;;;19.30;99.90;;;;;;4991277;28;20095;-94
2023/08/13 06:25:16;;;;;;;0.70;0.70;;;19.20;99.90;;;;;;5003999;28;20041;-94
2023/08/13 06:27:48;;;;;;;0.60;0.60;;;19.20;99.90;;;;;;4991441;28;20072;-96
2023/08/13 06:30:13;;;;;;;0.70;0.70;;;19.10;99.90;;;;;;4990310;28;20046;-92
2023/08/13 06:32:42;;;;;;;0.60;0.60;;;19.10;99.90;;;;;;4989924;28;20099;-94
2023/08/13 06:35:19;;;;;;;0.70;0.70;;;19.20;99.90;;;;;;4989392;28;20054;-91
2023/08/13 06:37:48;;;;;;;0.70;0.70;;;19.10;99.90;;;;;;4986419;28;20085;-92
2023/08/13 06:40:19;;;;;;;0.60;0.60;;;19.10;99.90;;;;;;4991286;28;20049;-95
2023/08/13 06:42:45;;;;;;;0.60;0.60;;;19.50;99.90;;;;;;4987384;28;20046;-90
2023/08/13 06:45:23;;;;;;;0.60;0.60;;;19.60;99.90;;;;;;4987630;28;20050;-94
2023/08/13 06:47:49;;;;;;;0.60;0.60;;;19.60;99.90;;;;;;4986496;28;20050;-90
2023/08/13 06:50:15;;;;;;;0.60;0.60;;;19.60;99.90;;;;;;4997441;28;20065;-95
2023/08/13 06:53:11;;;;;;;0.63;0.63;;;19.70;99.90;;;;;;4998398;28;20120;-95
2023/08/13 06:55:39;;;;;;;0.50;0.50;;;19.80;99.90;;;;;;4984608;28;20055;-94
2023/08/13 06:58:08;;;;;;;0.50;0.50;;;20.10;99.90;;;;;;4993263;28;20047;-91
2023/08/13 07:00:34;;;;;;;0.50;0.50;;;20.20;99.90;;;;;;4993122;28;20181;-90
2023/08/13 07:03:01;;;;;;;0.50;0.50;;;20.20;99.90;;;;;;5005567;28;20129;-90
2023/08/13 07:05:30;;;;;;;0.50;0.50;;;20.30;99.90;;;;;;5009358;28;20038;-93
2023/08/13 07:08:09;;;;;;;0.50;0.50;;;20.30;99.90;;;;;;5004318;28;20503;-94
2023/08/13 07:10:47;;;;;;;0.60;0.60;;;20.40;99.90;;;;;;5001473;28;20104;-94
2023/08/13 07:13:22;;;;;;;0.50;0.50;;;20.60;99.90;;;;;;4995791;28;20057;-94
2023/08/13 07:15:48;;;;;;;0.50;0.50;;;20.50;99.90;;;;;;4985077;28;20041;-91
2023/08/13 07:18:17;;;;;;;0.60;0.60;;;20.20;99.90;;;;;;4989150;28;20042;-90
2023/08/13 07:20:43;;;;;;;0.60;0.60;;;20.20;99.90;;;;;;4987415;28;20041;-91
2023/08/13 07:23:14;;;;;;;0.60;0.60;;;20.30;99.90;;;;;;4990287;28;20080;-94
2023/08/13 07:25:43;;;;;;;0.60;0.60;;;20.40;99.90;;;;;;4978074;28;20108;-94
2023/08/13 07:28:10;;;;;;;0.60;0.60;;;20.40;99.90;;;;;;4985073;28;20073;-89
2023/08/13 07:30:35;;;;;;;0.60;0.60;;;20.30;99.90;;;;;;4998636;28;20051;-91
2023/08/13 07:33:01;;;;;;;0.50;0.50;;;20.30;99.90;;;;;;4998691;28;20038;-90
2023/08/13 07:35:27;;;;;;;0.60;0.60;;;20.20;99.90;;;;;;4981169;28;20058;-93
2023/08/13 07:37:52;;;;;;;0.60;0.60;;;20.10;99.90;;;;;;5002107;28;20042;-95
2023/08/13 07:40:18;;;;;;;0.50;0.50;;;20.30;99.90;;;;;;4980739;28;20045;-93
2023/08/13 07:42:44;;;;;;;0.50;0.50;;;20.20;99.90;;;;;;4983883;28;20054;-89
2023/08/13 07:45:11;;;;;;;0.60;0.60;;;20.40;99.90;;;;;;4994309;28;20053;-90
2023/08/13 07:47:37;;;;;;;0.50;0.50;;;20.70;99.90;;;;;;4983411;28;20060;-88
2023/08/13 07:50:04;;;;;;;0.50;0.50;;;20.90;99.90;;;;;;4997149;28;20168;-93
2023/08/13 07:52:36;;;;;;;0.60;0.60;;;21.00;99.90;;;;;;4986669;28;20125;-90
2023/08/13 07:55:02;;;;;;;0.50;0.50;;;21.10;99.90;;;;;;4983915;28;20125;-93
2023/08/13 07:57:33;;;;;;;0.50;0.50;;;21.20;99.90;;;;;;4987744;28;20650;-94
2023/08/13 08:00:08;;;;;;;0.40;0.40;;;21.20;99.90;;;;;;4998967;28;20077;-95
2023/08/13 08:02:34;;;;;;;0.40;0.40;;;21.50;99.90;;;;;;4998777;28;20053;-94
2023/08/13 08:05:00;;;;;;;0.40;0.40;;;21.60;99.90;;;;;;4999396;28;20099;-92
2023/08/13 08:07:29;;;;;;;0.40;0.40;;;21.60;99.90;;;;;;4999559;28;20729;-93
2023/08/13 08:10:00;;;;;;;0.40;0.40;;;21.80;99.90;;;;;;4985666;28;20042;-95
2023/08/13 08:12:32;;;;;;;0.40;0.40;;;21.80;99.90;;;;;;5019654;28;20172;-95
2023/08/13 08:15:07;;;;;;;0.50;0.50;;;21.60;99.90;;;;;;4985714;28;20133;-95
2023/08/13 08:17:35;;;;;;;0.50;0.50;;;21.40;99.90;;;;;;5000999;28;20046;-92
2023/08/13 08:20:06;;;;;;;0.55;0.55;;;21.40;99.90;;;;;;4984311;28;20061;-95
2023/08/13 08:22:32;;;;;;;0.50;0.50;;;21.70;99.90;;;;;;4984977;28;20068;-92
2023/08/13 08:25:05;;;;;;;0.60;0.60;;;21.80;99.90;;;;;;4987527;28;20049;-94
2023/08/13 08:27:31;;;;;;;0.50;0.50;;;21.90;99.90;;;;;;4990357;28;20038;-89
2023/08/13 08:29:57;;;;;;;0.47;0.47;;;22.00;99.90;;;;;;4988100;28;20116;-89
2023/08/13 08:32:29;;;;;;;0.40;0.40;;;22.00;99.90;;;;;;4983972;28;20046;-94
2023/08/13 08:34:54;;;;;;;0.45;0.45;;;22.20;99.90;;;;;;5000934;28;20045;-95
2023/08/13 08:37:20;;;;;;;0.50;0.50;;;22.10;99.90;;;;;;4995785;28;20431;-94
2023/08/13 08:39:46;;;;;;;0.50;0.50;;;22.30;99.90;;;;;;4986713;28;20046;-91
2023/08/13 08:42:12;;;;;;;0.50;0.50;;;22.30;99.90;;;;;;5011357;28;20050;-92
2023/08/13 08:44:42;;;;;;;0.50;0.50;;;22.20;99.90;;;;;;4997704;28;20057;-93
2023/08/13 08:47:10;;;;;;;0.50;0.50;;;22.10;99.90;;;;;;4983831;28;20058;-91
2023/08/13 08:49:46;;;;;;;0.50;0.50;;;22.40;99.90;;;;;;4996223;28;20046;-95
2023/08/13 08:52:12;;;;;;;0.50;0.50;;;22.40;99.90;;;;;;4978936;28;20041;-91
2023/08/13 08:54:39;;;;;;;0.40;0.40;;;22.60;99.90;;;;;;4981242;28;20053;-90
2023/08/13 08:57:24;;;;;;;0.50;0.50;;;22.70;99.90;;;;;;5000749;28;20060;-95
2023/08/13 08:59:51;;;;;;;0.40;0.40;;;22.90;99.90;;;;;;4985743;28;20052;-94
2023/08/13 09:02:30;;;;;;;0.40;0.40;;;22.80;99.90;;;;;;5008627;28;20038;-95
2023/08/13 09:04:56;;;;;;;0.45;0.45;;;22.80;99.90;;;;;;4992427;28;20672;-89
2023/08/13 09:07:52;;;;;;;0.40;0.40;;;22.80;99.90;;;;;;4999288;28;20053;-90
2023/08/13 09:10:24;;;;;;;0.40;0.40;;;22.60;99.90;;;;;;5015433;28;20043;-96
2023/08/13 09:12:52;;;;;;;0.40;0.40;;;23.10;99.90;;;;;;5009092;28;20038;-93
2023/08/13 09:15:37;;;;;;;0.40;0.40;;;23.20;99.90;;;;;;4988817;28;20041;-90
2023/08/13 09:18:05;;;;;;;0.30;0.30;;;23.40;99.90;;;;;;4991716;28;20046;-91
2023/08/13 09:21:10;;;;;;;0.43;0.43;;;23.30;99.90;;;;;;5001950;28;20045;-94
2023/08/13 09:23:46;;;;;;;0.50;0.50;;;23.30;99.90;;;;;;5010405;28;20065;-92
2023/08/13 09:26:20;;;;;;;0.30;0.30;;;23.40;99.90;;;;;;4989543;28;20095;-95
2023/08/13 09:28:52;;;;;;;0.50;0.50;;;23.70;99.90;;;;;;4992666;28;20049;-90
2023/08/13 09:31:23;;;;;;;0.30;0.30;;;23.60;99.90;;;;;;4993108;28;20117;-90
2023/08/13 09:33:52;;;;;;;0.60;0.60;;;23.50;99.90;;;;;;4985194;28;20050;-92
2023/08/13 09:36:58;;;;;;;0.52;0.52;;;23.60;99.90;;;;;;4981230;28;20049;-95
2023/08/13 09:39:33;;;;;;;0.30;0.30;;;23.50;99.90;;;;;;4972767;28;20046;-94
2023/08/13 09:42:10;;;;;;;;;;;;;;;;;;;;;
2023/08/13 09:44:49;;;;;;;0.38;0.38;;;23.80;99.90;;;;;;5008911;28;20058;-95
2023/08/13 09:47:22;;;;;;;0.68;0.68;;;24.10;99.90;;;;;;4986953;28;20112;-93
2023/08/13 09:49:49;;;;;;;0.45;0.45;;;24.30;99.90;;;;;;4999168;28;20129;-88
2023/08/13 09:52:28;;;;;;;0.65;0.65;;;24.20;99.90;;;;;;4982215;28;20050;-96
2023/08/13 09:55:08;;;;;;;0.30;0.30;;;23.80;99.90;;;;;;4985367;28;20048;-93
2023/08/13 10:00:52;;;;;;;0.38;0.38;;;24.50;99.90;;;;;;5001635;28;20045;-91
2023/08/13 10:03:27;;;;;;;0.30;0.30;;;24.80;99.90;;;;;;5003498;28;20089;-90
2023/08/13 10:05:55;;;;;;;0.40;0.40;;;24.70;99.90;;;;;;4997814;28;20070;-88
2023/08/13 10:08:21;;;;;;;0.30;0.30;;;24.50;99.90;;;;;;4994020;28;20058;-87
2023/08/13 10:11:14;;;;;;;0.30;0.30;;;24.60;99.90;;;;;;4995762;28;20046;-93
2023/08/13 10:13:39;;;;;;;0.30;0.30;;;24.80;99.90;;;;;;4999651;28;20504;-89
2023/08/13 10:16:06;;;;;;;0.30;0.30;;;24.90;99.90;;;;;;5000803;28;20077;-91
2023/08/13 10:18:56;;;;;;;0.30;0.30;;;24.30;99.90;;;;;;4988997;28;20046;-96
2023/08/13 10:21:37;;;;;;;0.30;0.30;;;24.40;99.90;;;;;;4993203;28;20128;-88
2023/08/13 10:24:05;;;;;;;0.30;0.30;;;24.40;99.90;;;;;;5004261;28;20045;-95
2023/08/13 10:26:36;;;;;;;0.30;0.30;;;24.60;99.90;;;;;;4988445;28;20045;-93
2023/08/13 10:29:19;;;;;;;0.30;0.30;;;24.60;99.90;;;;;;4987744;28;20062;-95
2023/08/13 10:31:59;;;;;;;0.30;0.30;;;24.90;99.90;;;;;;5004293;28;20042;-88
2023/08/13 10:34:50;;;;;;;0.30;0.30;;;25.30;99.90;;;;;;5006371;28;20042;-94
2023/08/13 10:37:30;;;;;;;0.30;0.30;;;25.20;99.90;;;;;;4986994;28;20046;-95
2023/08/13 10:39:56;;;;;;;0.30;0.30;;;25.50;99.90;;;;;;5004343;28;20049;-91
2023/08/13 10:42:33;;;;;;;0.30;0.30;;;25.70;99.90;;;;;;5001785;28;20042;-95
2023/08/13 10:45:13;;;;;;;0.30;0.30;;;25.60;99.90;;;;;;4997854;28;20062;-92
2023/08/13 10:47:58;;;;;;;0.30;0.30;;;25.50;99.90;;;;;;4983649;28;20042;-92
2023/08/13 10:50:28;;;;;;;0.30;0.30;;;25.60;99.90;;;;;;4988175;28;20058;-92
2023/08/13 10:53:07;;;;;;;0.30;0.30;;;25.10;99.90;;;;;;5004820;28;20492;-96
2023/08/13 10:55:48;;;;;;;0.30;0.30;;;24.30;99.90;;;;;;4988085;28;20128;-89
2023/08/13 10:58:40;;;;;;;0.30;0.30;;;23.90;99.90;;;;;;4987826;28;20605;-95
2023/08/13 11:01:21;;;;;;;0.30;0.30;;;24.10;99.90;;;;;;5003779;28;20145;-96
2023/08/13 11:03:52;;;;;;;0.40;0.40;;;24.30;99.90;;;;;;4998197;28;20042;-95
2023/08/13 11:06:22;;;;;;;0.30;0.30;;;24.40;99.90;;;;;;5002160;28;20041;-95
2023/08/13 11:08:48;;;;;;;0.30;0.30;;;24.30;99.90;;;;;;4988127;28;20128;-90
2023/08/13 11:11:18;;;;;;;0.30;0.30;;;24.40;99.90;;;;;;5010375;28;20160;-92
2023/08/13 11:13:46;;;;;;;0.30;0.30;;;24.20;99.90;;;;;;4990178;28;20538;-94
2023/08/13 11:16:12;;;;;;;0.35;0.35;;;24.10;99.90;;;;;;4984495;28;20120;-94
2023/08/13 11:18:38;;;;;;;0.30;0.30;;;23.90;99.90;;;;;;4986305;28;20046;-93
2023/08/13 11:21:15;;;;;;;0.30;0.30;;;23.90;99.90;;;;;;4985774;28;20053;-95
2023/08/13 11:23:40;;;;;;;0.30;0.30;;;23.70;99.90;;;;;;4974623;28;20046;-93
2023/08/13 11:26:07;;;;;;;0.30;0.30;;;23.70;99.90;;;;;;4992512;28;20046;-92
2023/08/13 11:28:45;;;;;;;0.38;0.38;;;23.90;99.90;;;;;;4992020;28;20597;-95
2023/08/13 11:31:17;;;;;;;0.60;0.60;;;23.80;99.90;;;;;;4977260;28;20037;-95
2023/08/13 11:33:42;;;;;;;0.30;0.30;;;23.80;99.90;;;;;;4989494;28;20046;-93
2023/08/13 11:36:50;;;;;;;0.70;0.70;;;24.20;99.90;;;;;;4998674;28;20042;-94
2023/08/13 11:39:34;;;;;;;0.55;0.55;;;24.50;99.90;;;;;;4954305;28;20133;-95
2023/08/13 11:42:33;;;;;;;0.50;0.50;;;25.00;99.90;;;;;;4975041;28;20054;-92
2023/08/13 11:44:58;;;;;;;0.35;0.35;;;25.40;99.90;;;;;;4978474;28;20055;-92
2023/08/13 11:47:28;;;;;;;0.30;0.30;;;24.70;99.90;;;;;;4989466;28;20104;-95
2023/08/13 11:49:59;;;;;;;0.70;0.70;;;24.30;99.90;;;;;;5000976;28;20116;-90
2023/08/13 11:52:37;;;;;;;0.30;0.30;;;24.00;99.90;;;;;;5001150;28;20045;-95
2023/08/13 11:55:14;;;;;;;0.45;0.45;;;23.60;99.90;;;;;;4992042;28;20140;-96
2023/08/13 11:57:41;;;;;;;0.47;0.47;;;23.30;99.90;;;;;;4985358;28;20542;-87
2023/08/13 12:00:08;;;;;;;0.30;0.30;;;23.30;99.90;;;;;;4984550;28;20092;-91
2023/08/13 12:02:59;;;;;;;0.35;0.35;;;23.10;99.90;;;;;;4992219;28;20429;-96
2023/08/13 12:06:25;;;;;;;0.80;0.80;;;23.10;99.90;;;;;;4999800;28;20486;-95
2023/08/13 12:09:01;;;;;;;0.80;0.80;;;23.30;99.90;;;;;;4977027;28;20155;-95
2023/08/13 12:12:05;;;;;;;0.40;0.40;;;23.40;99.90;;;;;;4986895;28;20051;-96
2023/08/13 12:14:46;;;;;;;0.75;0.75;;;23.60;99.90;;;;;;5021349;28;20109;-92
2023/08/13 12:17:12;;;;;;;0.80;0.80;;;23.70;99.90;;;;;;4988835;28;20073;-89
2023/08/13 12:19:41;;;;;;;0.50;0.50;;;23.90;99.90;;;;;;4988212;28;20052;-95
2023/08/13 12:22:09;;;;;;;0.57;0.57;;;24.10;99.90;;;;;;4991335;28;20128;-92
2023/08/13 12:24:42;;;;;;;0.43;0.43;;;24.20;99.90;;;;;;4986079;28;20038;-91
2023/08/13 12:27:12;;;;;;;0.30;0.30;;;24.00;99.90;;;;;;4999096;28;20057;-93
2023/08/13 12:29:41;;;;;;;0.47;0.47;;;24.00;99.90;;;;;;4993613;28;20057;-94
2023/08/13 12:32:23;;;;;;;0.70;0.70;;;24.10;99.90;;;;;;5003691;28;20042;-96
2023/08/13 12:35:10;;;;;;;0.30;0.30;;;24.00;99.90;;;;;;4997988;28;20423;-94
2023/08/13 12:37:46;;;;;;;0.70;0.70;;;23.70;99.90;;;;;;4999463;28;20050;-92
2023/08/13 12:40:25;;;;;;;0.40;0.40;;;24.20;99.90;;;;;;4988303;28;20053;-94
2023/08/13 12:42:56;;;;;;;0.60;0.60;;;25.20;99.90;;;;;;4984949;28;20050;-91
2023/08/13 12:45:33;;;;;;;0.40;0.40;;;25.60;99.90;;;;;;5004986;28;20041;-95
2023/08/13 12:47:58;;;;;;;0.32;0.32;;;26.00;99.90;;;;;;5000260;28;20152;-91
2023/08/13 12:50:27;;;;;;;0.40;0.40;;;25.70;99.90;;;;;;4984162;28;20719;-96
2023/08/13 12:52:53;;;;;;;0.30;0.30;;;25.20;99.90;;;;;;5006954;28;20042;-92
2023/08/13 12:55:19;;;;;;;0.30;0.30;;;24.90;99.90;;;;;;4985578;28;20139;-90
2023/08/13 12:57:45;;;;;;;0.30;0.30;;;25.10;99.90;;;;;;4996524;28;20050;-95
2023/08/13 13:00:11;;;;;;;0.30;0.30;;;25.80;99.90;;;;;;5001193;28;20133;-92
2023/08/13 13:02:40;;;;;;;0.30;0.30;;;26.10;99.90;;;;;;4987326;28;20042;-96
2023/08/13 13:05:08;;;;;;;0.30;0.30;;;26.20;99.90;;;;;;4988482;28;20085;-95
2023/08/13 13:07:33;;;;;;;0.30;0.30;;;25.70;99.90;;;;;;4984863;28;20105;-93